createdAt,value
2017-10-07T00:01:30.649Z,89.17
2017-10-07T00:02:30.689Z,89.26
2017-10-07T00:04:23.697Z,89.26
2017-10-07T00:05:23.739Z,89.36
2017-10-07T00:07:16.727Z,89.07
2017-10-07T00:08:16.791Z,89.36
2017-10-07T00:10:09.794Z,89.36
2017-10-07T00:11:09.834Z,89.26
2017-10-07T00:13:02.822Z,89.07
2017-10-07T00:14:02.878Z,89.07
2017-10-07T00:15:55.885Z,89.26
2017-10-07T00:16:55.925Z,89.17
2017-10-07T00:18:48.912Z,88.98
2017-10-07T00:19:48.971Z,89.26
2017-10-07T00:21:41.982Z,89.17
2017-10-07T00:22:42.018Z,89.83
2017-10-07T00:24:35.023Z,89.07
2017-10-07T00:25:35.062Z,88.98
2017-10-07T00:27:28.050Z,89.17
2017-10-07T00:28:28.107Z,89.36
2017-10-07T00:30:21.112Z,89.36
2017-10-07T00:31:21.153Z,89.45
2017-10-07T00:33:14.141Z,89.60
2017-10-07T00:34:14.198Z,89.26
2017-10-07T00:36:07.208Z,88.98
2017-10-07T00:37:07.247Z,89.31
2017-10-07T00:39:00.236Z,88.93
2017-10-07T00:40:00.291Z,89.89
2017-10-07T00:41:53.304Z,89.12
2017-10-07T00:42:53.337Z,89.74
2017-10-07T00:44:46.341Z,89.26
2017-10-07T00:45:46.382Z,89.36
2017-10-07T00:47:39.373Z,89.26
2017-10-07T00:48:39.433Z,89.40
2017-10-07T00:50:32.440Z,89.60
2017-10-07T00:51:32.481Z,89.98
2017-10-07T00:53:25.468Z,89.98
2017-10-07T00:54:25.529Z,89.98
2017-10-07T00:56:18.535Z,90.08
2017-10-07T00:57:18.575Z,89.98
2017-10-07T00:59:12.076Z,89.40
2017-10-07T01:00:12.126Z,89.98
2017-10-07T01:02:05.131Z,90.64
2017-10-07T01:03:05.173Z,90.45
2017-10-07T01:04:58.176Z,90.26
2017-10-07T01:05:58.217Z,90.64
2017-10-07T01:07:51.200Z,90.55
2017-10-07T01:08:51.261Z,91.03
2017-10-07T01:10:44.264Z,91.03
2017-10-07T01:11:44.304Z,90.84
2017-10-07T01:13:37.295Z,90.55
2017-10-07T01:14:37.351Z,90.64
2017-10-07T01:16:30.355Z,90.93
2017-10-07T01:17:30.395Z,90.55
2017-10-07T01:19:23.383Z,91.03
2017-10-07T01:20:23.438Z,90.84
2017-10-07T01:22:16.442Z,90.55
2017-10-07T01:23:16.486Z,90.74
2017-10-07T01:25:09.490Z,90.64
2017-10-07T01:26:09.530Z,90.45
2017-10-07T01:28:02.518Z,90.17
2017-10-07T01:29:02.574Z,90.55
2017-10-07T01:30:55.580Z,90.26
2017-10-07T01:31:55.619Z,90.36
2017-10-07T01:33:48.616Z,90.64
2017-10-07T01:34:48.663Z,90.45
2017-10-07T01:36:41.670Z,90.36
2017-10-07T01:37:41.708Z,89.98
2017-10-07T01:39:34.697Z,89.79
2017-10-07T01:40:34.770Z,90.17
2017-10-07T01:42:27.756Z,90.08
2017-10-07T01:43:27.797Z,89.98
2017-10-07T01:45:20.804Z,89.69
2017-10-07T01:46:20.842Z,89.79
2017-10-07T01:48:13.830Z,89.89
2017-10-07T01:49:13.893Z,89.98
2017-10-07T01:51:06.897Z,90.26
2017-10-07T01:52:06.939Z,90.45
2017-10-07T01:53:59.926Z,90.55
2017-10-07T01:54:59.985Z,90.93
2017-10-07T01:56:53.019Z,91.31
2017-10-07T01:57:53.025Z,91.03
2017-10-07T01:59:46.519Z,90.84
2017-10-07T02:00:46.577Z,90.84
2017-10-07T02:02:39.581Z,91.03
2017-10-07T02:03:39.621Z,91.03
2017-10-07T02:05:32.626Z,91.03
2017-10-07T02:06:32.665Z,91.31
2017-10-07T02:08:25.653Z,91.98
2017-10-07T02:09:25.710Z,91.98
2017-10-07T02:11:18.714Z,91.22
2017-10-07T02:12:18.756Z,91.13
2017-10-07T02:14:11.742Z,91.22
2017-10-07T02:15:11.804Z,91.41
2017-10-07T02:17:04.808Z,91.03
2017-10-07T02:18:04.849Z,91.22
2017-10-07T02:19:57.831Z,91.22
2017-10-07T02:20:57.892Z,91.03
2017-10-07T02:22:50.924Z,91.31
2017-10-07T02:23:50.964Z,91.22
2017-10-07T02:25:43.967Z,90.55
2017-10-07T02:26:44.007Z,90.93
2017-10-07T02:28:36.995Z,90.45
2017-10-07T02:29:37.050Z,90.93
2017-10-07T02:31:30.057Z,90.64
2017-10-07T02:32:30.098Z,90.45
2017-10-07T02:34:23.084Z,90.74
2017-10-07T02:35:23.142Z,90.64
2017-10-07T02:37:16.147Z,90.36
2017-10-07T02:38:16.187Z,90.45
2017-10-07T02:40:09.175Z,90.26
2017-10-07T02:41:09.234Z,90.64
2017-10-07T02:43:02.240Z,90.45
2017-10-07T02:44:02.281Z,90.70
2017-10-07T02:45:55.265Z,90.55
2017-10-07T02:46:55.323Z,90.36
2017-10-07T02:48:48.328Z,90.26
2017-10-07T02:49:48.366Z,90.12
2017-10-07T02:51:41.370Z,89.89
2017-10-07T02:52:41.410Z,89.94
2017-10-07T02:54:34.401Z,90.08
2017-10-07T02:55:34.460Z,89.69
2017-10-07T02:57:27.465Z,89.94
2017-10-07T02:58:27.506Z,89.69
2017-10-07T03:00:20.496Z,89.89
2017-10-07T03:01:20.549Z,90.17
2017-10-07T03:03:13.557Z,90.08
2017-10-07T03:04:13.596Z,89.98
2017-10-07T03:06:06.584Z,90.08
2017-10-07T03:07:06.642Z,90.08
2017-10-07T03:08:59.647Z,89.89
2017-10-07T03:09:59.686Z,89.94
2017-10-07T03:11:52.694Z,90.08
2017-10-07T03:12:52.733Z,90.08
2017-10-07T03:14:45.716Z,89.98
2017-10-07T03:15:45.776Z,89.75
2017-10-07T03:17:38.781Z,89.98
2017-10-07T03:18:38.823Z,89.89
2017-10-07T03:20:31.810Z,90.08
2017-10-07T03:21:31.867Z,89.98
2017-10-07T03:23:24.870Z,89.50
2017-10-07T03:24:24.913Z,89.75
2017-10-07T03:26:17.897Z,89.98
2017-10-07T03:27:17.953Z,89.75
2017-10-07T03:29:10.959Z,89.98
2017-10-07T03:30:10.999Z,89.98
2017-10-07T03:32:04.003Z,89.98
2017-10-07T03:33:04.042Z,90.03
2017-10-07T03:34:57.024Z,89.94
2017-10-07T03:35:57.084Z,90.03
2017-10-07T03:37:50.089Z,89.94
2017-10-07T03:38:50.127Z,89.94
2017-10-07T03:40:43.116Z,89.55
2017-10-07T03:41:43.173Z,89.84
2017-10-07T03:43:36.179Z,89.75
2017-10-07T03:44:36.220Z,90.12
2017-10-07T03:46:29.200Z,90.12
2017-10-07T03:47:29.261Z,90.12
2017-10-07T03:49:22.265Z,89.94
2017-10-07T03:50:22.306Z,89.84
2017-10-07T03:52:15.309Z,90.12
2017-10-07T03:53:15.348Z,90.03
2017-10-07T03:55:08.335Z,90.03
2017-10-07T03:56:08.394Z,90.03
2017-10-07T03:58:01.396Z,89.84
2017-10-07T03:59:01.437Z,89.94
2017-10-07T04:00:54.423Z,89.84
2017-10-07T04:01:54.481Z,89.55
2017-10-07T04:03:47.491Z,89.55
2017-10-07T04:04:47.527Z,89.26
2017-10-07T04:06:40.514Z,89.65
2017-10-07T04:07:40.570Z,89.36
2017-10-07T04:09:33.578Z,89.26
2017-10-07T04:10:33.619Z,89.55
2017-10-07T04:12:26.621Z,89.94
2017-10-07T04:13:26.661Z,89.13
2017-10-07T04:15:19.648Z,89.32
2017-10-07T04:16:19.720Z,89.22
2017-10-07T04:18:12.711Z,89.26
2017-10-07T04:19:12.749Z,89.41
2017-10-07T04:21:05.739Z,89.46
2017-10-07T04:22:05.800Z,89.51
2017-10-07T04:23:58.806Z,89.32
2017-10-07T04:24:58.849Z,89.32
2017-10-07T04:26:51.846Z,89.32
2017-10-07T04:27:51.891Z,89.51
2017-10-07T04:29:44.902Z,89.22
2017-10-07T04:30:44.950Z,89.32
2017-10-07T04:32:37.946Z,89.22
2017-10-07T04:33:37.985Z,89.13
2017-10-07T04:35:30.975Z,89.17
2017-10-07T04:36:31.036Z,89.32
2017-10-07T04:38:24.040Z,89.03
2017-10-07T04:39:24.080Z,89.32
2017-10-07T04:41:17.064Z,89.03
2017-10-07T04:42:17.129Z,89.32
2017-10-07T04:44:10.123Z,89.22
2017-10-07T04:45:10.164Z,88.93
2017-10-07T04:47:03.146Z,89.41
2017-10-07T04:48:03.205Z,89.26
2017-10-07T04:49:56.214Z,89.13
2017-10-07T04:50:56.249Z,88.93
2017-10-07T04:52:49.257Z,88.46
2017-10-07T04:53:49.298Z,89.22
2017-10-07T04:55:42.285Z,88.84
2017-10-07T04:56:42.340Z,88.70
2017-10-07T04:58:35.346Z,88.89
2017-10-07T04:59:35.385Z,88.65
2017-10-07T05:01:28.375Z,88.65
2017-10-07T05:02:28.433Z,88.65
2017-10-07T05:04:21.438Z,88.75
2017-10-07T05:05:21.477Z,88.70
2017-10-07T05:07:14.464Z,88.60
2017-10-07T05:08:14.519Z,88.84
2017-10-07T05:10:07.522Z,88.84
2017-10-07T05:11:07.562Z,87.93
2017-10-07T05:13:00.565Z,88.60
2017-10-07T05:14:00.607Z,88.51
2017-10-07T05:15:53.615Z,88.41
2017-10-07T05:16:53.656Z,88.51
2017-10-07T05:18:46.661Z,88.22
2017-10-07T05:19:46.699Z,88.12
2017-10-07T05:21:39.687Z,88.12
2017-10-07T05:22:39.747Z,88.12
2017-10-07T05:24:32.798Z,88.22
2017-10-07T05:25:32.796Z,88.03
2017-10-07T05:27:25.785Z,88.31
2017-10-07T05:28:25.839Z,88.12
2017-10-07T05:30:18.842Z,88.03
2017-10-07T05:31:18.899Z,87.93
2017-10-07T05:33:11.884Z,88.31
2017-10-07T05:34:11.925Z,88.12
2017-10-07T05:36:04.910Z,88.41
2017-10-07T05:37:04.968Z,88.12
2017-10-07T05:38:57.986Z,88.31
2017-10-07T05:39:58.011Z,88.31
2017-10-07T05:41:51.008Z,87.65
2017-10-07T05:42:51.101Z,88.03
2017-10-07T05:44:44.127Z,87.46
2017-10-07T05:45:44.124Z,87.46
2017-10-07T05:47:37.105Z,87.74
2017-10-07T05:48:37.161Z,87.27
2017-10-07T05:50:30.171Z,87.55
2017-10-07T05:51:30.209Z,87.46
2017-10-07T05:53:23.212Z,87.46
2017-10-07T05:54:23.263Z,87.46
2017-10-07T05:56:16.239Z,87.65
2017-10-07T05:57:16.297Z,86.98
2017-10-07T05:59:09.297Z,87.55
2017-10-07T06:00:09.337Z,87.17
2017-10-07T06:02:02.331Z,87.36
2017-10-07T06:03:02.396Z,87.27
2017-10-07T06:04:55.389Z,86.98
2017-10-07T06:05:55.429Z,86.88
2017-10-07T06:07:48.419Z,87.17
2017-10-07T06:08:48.478Z,87.55
2017-10-07T06:10:41.507Z,86.98
2017-10-07T06:11:41.529Z,86.79
2017-10-07T06:13:34.535Z,86.51
2017-10-07T06:14:34.571Z,86.98
2017-10-07T06:16:27.563Z,86.22
2017-10-07T06:17:27.635Z,86.51
2017-10-07T06:19:20.626Z,86.51
2017-10-07T06:20:20.670Z,86.79
2017-10-07T06:22:13.656Z,86.60
2017-10-07T06:23:13.726Z,86.22
2017-10-07T06:25:06.713Z,86.32
2017-10-07T06:26:06.752Z,86.22
2017-10-07T06:27:59.735Z,85.84
2017-10-07T06:28:59.797Z,86.22
2017-10-07T06:30:52.805Z,85.93
2017-10-07T06:31:52.844Z,85.84
2017-10-07T06:33:45.848Z,86.12
2017-10-07T06:34:45.888Z,86.16
2017-10-07T06:36:38.921Z,85.60
2017-10-07T06:37:38.928Z,85.88
2017-10-07T06:39:31.933Z,85.41
2017-10-07T06:40:31.991Z,85.31
2017-10-07T06:42:24.958Z,84.92
2017-10-07T06:43:25.017Z,85.60
2017-10-07T06:45:18.020Z,84.83
2017-10-07T06:46:18.060Z,85.02
2017-10-07T06:48:11.046Z,84.26
2017-10-07T06:49:11.105Z,84.92
2017-10-07T06:51:04.109Z,84.64
2017-10-07T06:52:04.149Z,84.26
2017-10-07T06:53:57.156Z,85.02
2017-10-07T06:54:57.194Z,84.92
2017-10-07T06:56:50.186Z,85.02
2017-10-07T06:57:50.247Z,84.92
2017-10-07T06:59:43.252Z,84.55
2017-10-07T07:00:43.292Z,84.45
2017-10-07T07:02:36.281Z,84.55
2017-10-07T07:03:36.336Z,84.55
2017-10-07T07:05:29.341Z,84.16
2017-10-07T07:06:29.379Z,84.74
2017-10-07T07:08:22.369Z,84.45
2017-10-07T07:09:22.423Z,84.83
2017-10-07T07:11:15.433Z,84.45
2017-10-07T07:12:15.473Z,84.07
2017-10-07T07:14:08.477Z,83.97
2017-10-07T07:15:08.516Z,84.26
2017-10-07T07:17:01.503Z,83.97
2017-10-07T07:18:01.561Z,83.59
2017-10-07T07:19:54.564Z,83.78
2017-10-07T07:20:54.604Z,84.36
2017-10-07T07:22:48.098Z,84.36
2017-10-07T07:23:48.154Z,83.40
2017-10-07T07:25:41.160Z,83.59
2017-10-07T07:26:41.207Z,83.69
2017-10-07T07:28:34.186Z,83.97
2017-10-07T07:29:34.244Z,83.31
2017-10-07T07:31:27.248Z,83.78
2017-10-07T07:32:27.289Z,83.69
2017-10-07T07:34:20.290Z,83.78
2017-10-07T07:35:20.330Z,84.07
2017-10-07T07:37:13.318Z,83.50
2017-10-07T07:38:13.373Z,83.83
2017-10-07T07:40:06.381Z,83.64
2017-10-07T07:41:06.419Z,83.54
2017-10-07T07:42:59.404Z,83.64
2017-10-07T07:43:59.468Z,83.54
2017-10-07T07:45:52.469Z,83.73
2017-10-07T07:46:52.508Z,84.01
2017-10-07T07:48:45.496Z,83.64
2017-10-07T07:49:45.556Z,82.97
2017-10-07T07:51:38.557Z,83.54
2017-10-07T07:52:38.598Z,83.73
2017-10-07T07:54:31.604Z,83.20
2017-10-07T07:55:31.643Z,83.01
2017-10-07T07:57:24.647Z,82.43
2017-10-07T07:58:24.751Z,81.96
2017-10-07T08:00:17.719Z,81.81
2017-10-07T08:01:17.758Z,82.34
2017-10-07T08:03:10.773Z,82.00
2017-10-07T08:04:10.804Z,81.62
2017-10-07T08:06:03.840Z,81.81
2017-10-07T08:07:03.870Z,82.00
2017-10-07T08:08:56.841Z,81.71
2017-10-07T08:09:56.902Z,81.24
2017-10-07T08:11:49.924Z,81.33
2017-10-07T08:12:49.949Z,81.33
2017-10-07T08:14:42.960Z,81.43
2017-10-07T08:15:43.002Z,81.52
2017-10-07T08:17:35.995Z,81.18
2017-10-07T08:18:36.058Z,80.99
2017-10-07T08:20:29.089Z,79.94
2017-10-07T08:21:29.113Z,80.13
2017-10-07T08:23:22.610Z,80.04
2017-10-07T08:24:22.667Z,79.80
2017-10-07T08:26:15.677Z,81.81
2017-10-07T08:27:15.730Z,81.52
2017-10-07T08:29:08.707Z,82.09
2017-10-07T08:30:08.767Z,82.29
2017-10-07T08:32:01.776Z,81.33
2017-10-07T08:33:01.816Z,81.14
2017-10-07T08:34:54.832Z,82.09
2017-10-07T08:35:54.863Z,82.09
2017-10-07T08:37:47.855Z,81.81
2017-10-07T08:38:47.917Z,81.71
2017-10-07T08:40:40.931Z,81.90
2017-10-07T08:41:40.969Z,81.33
2017-10-07T08:43:33.975Z,81.62
2017-10-07T08:44:34.022Z,81.04
2017-10-07T08:46:27.027Z,81.14
2017-10-07T08:47:27.070Z,81.52
2017-10-07T08:49:20.060Z,81.33
2017-10-07T08:50:20.114Z,81.24
2017-10-07T08:52:13.144Z,81.33
2017-10-07T08:53:13.168Z,81.52
2017-10-07T08:55:06.175Z,81.81
2017-10-07T08:56:06.215Z,81.33
2017-10-07T08:57:59.207Z,82.38
2017-10-07T08:58:59.268Z,81.81
2017-10-07T09:00:52.275Z,81.90
2017-10-07T09:01:52.315Z,82.38
2017-10-07T09:03:45.303Z,82.86
2017-10-07T09:04:45.379Z,82.86
2017-10-07T09:06:38.389Z,83.34
2017-10-07T09:07:38.410Z,83.43
2017-10-07T09:09:31.400Z,83.58
2017-10-07T09:10:31.458Z,84.06
2017-10-07T09:12:24.471Z,83.58
2017-10-07T09:13:24.508Z,83.96
2017-10-07T09:15:17.513Z,84.16
2017-10-07T09:16:17.561Z,84.34
2017-10-07T09:18:10.543Z,84.25
2017-10-07T09:19:10.598Z,84.72
2017-10-07T09:21:03.607Z,84.63
2017-10-07T09:22:03.647Z,84.72
2017-10-07T09:23:56.634Z,84.39
2017-10-07T09:24:56.695Z,84.00
2017-10-07T09:26:49.702Z,83.81
2017-10-07T09:27:49.742Z,83.81
2017-10-07T09:29:42.732Z,84.10
2017-10-07T09:30:42.793Z,83.67
2017-10-07T09:32:35.798Z,83.72
2017-10-07T09:33:35.853Z,83.43
2017-10-07T09:35:28.851Z,83.62
2017-10-07T09:36:28.886Z,84.00
2017-10-07T09:38:21.876Z,84.39
2017-10-07T09:39:21.932Z,83.48
2017-10-07T09:41:14.941Z,83.53
2017-10-07T09:42:14.981Z,84.25
2017-10-07T09:44:07.967Z,84.48
2017-10-07T09:45:08.028Z,84.29
2017-10-07T09:47:01.034Z,84.10
2017-10-07T09:48:01.074Z,84.39
2017-10-07T09:49:54.065Z,84.77
2017-10-07T09:50:54.128Z,84.77
2017-10-07T09:52:47.134Z,84.72
2017-10-07T09:53:47.176Z,84.86
2017-10-07T09:55:40.182Z,84.48
2017-10-07T09:56:40.222Z,84.10
2017-10-07T09:58:33.210Z,83.72
2017-10-07T09:59:33.267Z,84.00
2017-10-07T10:01:26.279Z,83.81
2017-10-07T10:02:26.320Z,83.91
2017-10-07T10:04:19.308Z,83.05
2017-10-07T10:05:19.366Z,83.81
2017-10-07T10:07:12.375Z,83.53
2017-10-07T10:08:12.415Z,83.62
2017-10-07T10:10:05.403Z,83.62
2017-10-07T10:11:05.464Z,83.43
2017-10-07T10:12:58.468Z,83.38
2017-10-07T10:13:58.512Z,83.76
2017-10-07T10:15:51.514Z,82.90
2017-10-07T10:16:51.555Z,83.00
2017-10-07T10:18:44.543Z,82.86
2017-10-07T10:19:44.604Z,83.09
2017-10-07T10:21:37.609Z,82.81
2017-10-07T10:22:37.653Z,82.76
2017-10-07T10:24:30.635Z,82.61
2017-10-07T10:25:30.695Z,82.90
2017-10-07T10:27:23.701Z,82.90
2017-10-07T10:28:23.742Z,83.62
2017-10-07T10:30:16.732Z,84.00
2017-10-07T10:31:16.790Z,84.58
2017-10-07T10:33:09.800Z,85.05
2017-10-07T10:34:09.839Z,85.34
2017-10-07T10:36:02.846Z,85.68
2017-10-07T10:37:02.886Z,86.06
2017-10-07T10:38:55.871Z,85.97
2017-10-07T10:39:55.933Z,86.44
2017-10-07T10:41:48.940Z,86.06
2017-10-07T10:42:48.981Z,86.44
2017-10-07T10:44:41.967Z,86.73
2017-10-07T10:45:42.028Z,86.54
2017-10-07T10:47:35.032Z,86.82
2017-10-07T10:48:35.092Z,87.02
2017-10-07T10:50:28.062Z,87.02
2017-10-07T10:51:28.121Z,86.59
2017-10-07T10:53:21.133Z,86.63
2017-10-07T10:54:21.166Z,86.54
2017-10-07T10:56:14.176Z,86.73
2017-10-07T10:57:14.220Z,87.35
2017-10-07T10:59:07.249Z,87.74
2017-10-07T11:00:07.263Z,87.74
2017-10-07T11:02:00.285Z,87.64
2017-10-07T11:03:00.321Z,87.54
2017-10-07T11:04:53.296Z,88.69
2017-10-07T11:05:53.356Z,88.21
2017-10-07T11:07:46.361Z,88.40
2017-10-07T11:08:46.403Z,88.59
2017-10-07T11:10:39.390Z,89.07
2017-10-07T11:11:39.449Z,89.54
2017-10-07T11:13:32.458Z,89.03
2017-10-07T11:14:32.494Z,89.03
2017-10-07T11:16:25.500Z,88.74
2017-10-07T11:17:25.542Z,88.98
2017-10-07T11:19:18.539Z,89.12
2017-10-07T11:20:18.591Z,88.84
2017-10-07T11:22:11.612Z,89.12
2017-10-07T11:23:11.641Z,88.93
2017-10-07T11:25:04.675Z,89.40
2017-10-07T11:26:04.682Z,89.31
2017-10-07T11:27:57.690Z,89.40
2017-10-07T11:28:57.735Z,89.50
2017-10-07T11:30:50.720Z,89.31
2017-10-07T11:31:50.777Z,89.50
2017-10-07T11:33:43.785Z,89.50
2017-10-07T11:34:43.824Z,89.31
2017-10-07T11:36:36.829Z,89.40
2017-10-07T11:37:36.868Z,89.98
2017-10-07T11:39:29.872Z,89.31
2017-10-07T11:40:29.924Z,89.98
2017-10-07T11:42:34.566Z,90.17
2017-10-07T11:43:34.598Z,89.79
2017-10-07T11:45:27.587Z,89.98
2017-10-07T11:46:27.655Z,89.98
2017-10-07T11:48:20.650Z,90.17
2017-10-07T11:49:20.693Z,90.08
2017-10-07T11:51:13.698Z,89.98
2017-10-07T11:52:13.735Z,90.45
2017-10-07T11:54:06.723Z,90.36
2017-10-07T11:55:06.778Z,90.45
2017-10-07T11:56:59.825Z,90.84
2017-10-07T11:57:59.859Z,91.13
2017-10-07T11:59:52.854Z,91.31
2017-10-07T12:00:52.914Z,90.84
2017-10-07T12:02:45.917Z,90.08
2017-10-07T12:03:45.957Z,90.45
2017-10-07T12:05:38.945Z,90.74
2017-10-07T12:06:39.002Z,90.74
2017-10-07T12:08:32.021Z,90.55
2017-10-07T12:09:32.048Z,91.22
2017-10-07T12:11:25.090Z,91.22
2017-10-07T12:12:25.117Z,91.13
2017-10-07T12:14:18.102Z,91.13
2017-10-07T12:15:18.163Z,91.13
2017-10-07T12:17:11.171Z,91.22
2017-10-07T12:18:11.204Z,91.03
2017-10-07T12:20:04.193Z,90.64
2017-10-07T12:21:04.251Z,91.31
2017-10-07T12:22:57.263Z,90.64
2017-10-07T12:23:57.302Z,90.64
2017-10-07T12:25:50.283Z,90.93
2017-10-07T12:26:50.342Z,90.84
2017-10-07T12:28:43.343Z,90.74
2017-10-07T12:29:43.384Z,90.74
2017-10-07T12:31:36.401Z,90.64
2017-10-07T12:32:36.426Z,90.36
2017-10-07T12:34:29.423Z,90.64
2017-10-07T12:35:29.483Z,90.64
2017-10-07T12:37:22.490Z,90.26
2017-10-07T12:38:22.530Z,90.74
2017-10-07T12:40:30.327Z,90.74
2017-10-07T12:41:30.388Z,90.93
2017-10-07T12:43:23.389Z,90.74
2017-10-07T12:44:23.429Z,90.84
2017-10-07T12:46:16.416Z,91.22
2017-10-07T12:47:16.473Z,91.13
2017-10-07T12:49:09.478Z,91.31
2017-10-07T12:50:09.517Z,90.74
2017-10-07T12:52:02.522Z,91.41
2017-10-07T12:53:02.562Z,91.41
2017-10-07T12:54:55.549Z,90.84
2017-10-07T12:55:55.605Z,91.13
2017-10-07T12:57:48.665Z,91.41
2017-10-07T12:58:48.656Z,91.50
2017-10-07T13:00:41.640Z,91.03
2017-10-07T13:01:41.699Z,91.22
2017-10-07T13:03:34.708Z,90.93
2017-10-07T13:04:34.749Z,90.93
2017-10-07T13:06:27.734Z,91.98
2017-10-07T13:07:27.796Z,91.31
2017-10-07T13:09:20.823Z,91.41
2017-10-07T13:10:20.842Z,91.22
2017-10-07T13:12:13.847Z,91.79
2017-10-07T13:13:13.891Z,91.22
2017-10-07T13:15:06.874Z,91.98
2017-10-07T13:16:06.956Z,91.60
2017-10-07T13:17:59.935Z,92.17
2017-10-07T13:18:59.992Z,91.31
2017-10-07T13:20:52.966Z,91.31
2017-10-07T13:21:53.037Z,91.31
2017-10-07T13:23:46.026Z,91.88
2017-10-07T13:24:46.068Z,91.79
2017-10-07T13:26:39.058Z,91.98
2017-10-07T13:27:39.112Z,91.98
2017-10-07T13:29:32.121Z,91.31
2017-10-07T13:30:32.157Z,91.98
2017-10-07T13:32:25.163Z,91.98
2017-10-07T13:33:25.200Z,91.31
2017-10-07T13:35:18.186Z,91.98
2017-10-07T13:36:18.245Z,91.50
2017-10-07T13:38:11.253Z,91.69
2017-10-07T13:39:11.291Z,92.12
2017-10-07T13:41:04.297Z,91.98
2017-10-07T13:42:04.342Z,91.88
2017-10-07T13:43:57.345Z,92.08
2017-10-07T13:44:57.392Z,91.69
2017-10-07T13:46:51.373Z,91.79
2017-10-07T13:47:51.435Z,91.79
2017-10-07T13:49:44.439Z,91.79
2017-10-07T13:50:44.489Z,92.03
2017-10-07T13:52:37.488Z,91.98
2017-10-07T13:53:37.527Z,91.50
2017-10-07T13:55:30.539Z,91.79
2017-10-07T13:56:30.618Z,91.79
2017-10-07T13:58:23.620Z,92.12
2017-10-07T13:59:23.641Z,91.60
2017-10-07T14:01:16.624Z,92.32
2017-10-07T14:02:16.687Z,92.65
2017-10-07T14:04:09.690Z,91.88
2017-10-07T14:05:09.728Z,91.79
2017-10-07T14:07:02.717Z,92.22
2017-10-07T14:08:02.774Z,92.32
2017-10-07T14:09:55.782Z,92.17
2017-10-07T14:10:55.822Z,92.17
2017-10-07T14:12:48.848Z,92.65
2017-10-07T14:13:48.886Z,92.46
2017-10-07T14:15:41.870Z,92.36
2017-10-07T14:17:54.890Z,92.46
2017-10-07T14:18:54.929Z,92.55
2017-10-07T14:20:47.917Z,92.46
2017-10-07T14:21:47.993Z,92.36
2017-10-07T14:23:40.983Z,92.74
2017-10-07T14:24:41.017Z,92.84
2017-10-07T14:26:34.005Z,93.12
2017-10-07T14:27:34.068Z,92.27
2017-10-07T14:29:27.092Z,93.03
2017-10-07T14:30:27.111Z,92.55
2017-10-07T14:32:20.103Z,93.27
2017-10-07T14:33:20.154Z,92.93
2017-10-07T14:35:13.164Z,92.98
2017-10-07T14:36:13.201Z,92.88
2017-10-07T14:38:06.201Z,93.17
2017-10-07T14:39:06.242Z,92.08
2017-10-07T14:40:59.231Z,92.03
2017-10-07T14:41:59.292Z,92.32
2017-10-07T14:43:52.300Z,92.60
2017-10-07T14:44:52.341Z,92.03
2017-10-07T14:46:45.327Z,92.12
2017-10-07T14:47:45.404Z,92.79
2017-10-07T14:49:38.400Z,92.50
2017-10-07T14:50:38.454Z,92.32
2017-10-07T14:52:31.426Z,92.88
2017-10-07T14:53:31.485Z,92.69
2017-10-07T14:55:24.532Z,92.60
2017-10-07T14:56:24.558Z,92.12
2017-10-07T14:58:17.582Z,92.41
2017-10-07T14:59:17.593Z,92.50
2017-10-07T15:01:10.602Z,92.32
2017-10-07T15:02:10.668Z,92.41
2017-10-07T15:04:03.675Z,92.12
2017-10-07T15:05:03.696Z,92.12
2017-10-07T15:06:56.679Z,92.60
2017-10-07T15:07:56.770Z,92.12
2017-10-07T15:09:49.798Z,92.32
2017-10-07T15:10:49.820Z,92.79
2017-10-07T15:12:43.227Z,92.88
2017-10-07T15:13:43.284Z,93.46
2017-10-07T15:15:37.544Z,93.55
2017-10-07T15:16:37.579Z,92.79
2017-10-07T15:18:31.625Z,93.74
2017-10-07T15:19:31.660Z,93.03
2017-10-07T15:21:24.647Z,93.27
2017-10-07T15:22:24.708Z,93.84
2017-10-07T15:24:17.713Z,93.55
2017-10-07T15:25:17.753Z,93.08
2017-10-07T15:27:10.775Z,93.65
2017-10-07T15:28:10.806Z,93.74
2017-10-07T15:30:03.818Z,93.17
2017-10-07T15:31:03.858Z,93.27
2017-10-07T15:32:56.849Z,92.88
2017-10-07T15:33:56.918Z,93.17
2017-10-07T15:35:49.930Z,93.74
2017-10-07T15:36:49.960Z,93.36
2017-10-07T15:38:42.986Z,94.12
2017-10-07T15:39:43.009Z,93.93
2017-10-07T15:41:35.997Z,94.41
2017-10-07T15:42:36.056Z,94.32
2017-10-07T15:44:29.106Z,94.22
2017-10-07T15:45:29.112Z,94.22
2017-10-07T15:47:22.098Z,93.74
2017-10-07T15:48:22.144Z,94.12
2017-10-07T15:50:15.150Z,94.98
2017-10-07T15:51:15.233Z,94.70
2017-10-07T15:53:08.241Z,94.32
2017-10-07T15:54:08.259Z,94.12
2017-10-07T15:56:01.248Z,94.41
2017-10-07T15:57:01.309Z,94.60
2017-10-07T15:58:54.324Z,94.98
2017-10-07T15:59:54.379Z,94.79
2017-10-07T16:01:47.436Z,94.70
2017-10-07T16:02:47.412Z,94.89
2017-10-07T16:04:40.419Z,94.32
2017-10-07T16:05:40.460Z,93.84
2017-10-07T16:07:33.446Z,94.22
2017-10-07T16:08:33.562Z,94.32
2017-10-07T16:10:26.508Z,94.51
2017-10-07T16:11:26.547Z,94.32
2017-10-07T16:13:19.555Z,94.12
2017-10-07T16:14:19.593Z,93.84
2017-10-07T16:16:12.599Z,93.65
2017-10-07T16:17:12.655Z,93.84
2017-10-07T16:19:05.646Z,93.84
2017-10-07T16:20:05.680Z,93.74
2017-10-07T16:21:58.664Z,93.46
2017-10-07T16:22:58.724Z,93.46
2017-10-07T16:24:51.733Z,93.17
2017-10-07T16:25:51.768Z,93.36
2017-10-07T16:27:44.753Z,93.36
2017-10-07T16:28:44.812Z,93.36
2017-10-07T16:30:37.824Z,92.98
2017-10-07T16:31:37.857Z,93.36
2017-10-07T16:33:30.861Z,93.08
2017-10-07T16:34:30.902Z,92.98
2017-10-07T16:36:23.909Z,92.88
2017-10-07T16:37:23.949Z,93.27
2017-10-07T16:39:17.465Z,93.27
2017-10-07T16:40:17.499Z,93.84
2017-10-07T16:42:10.486Z,93.36
2017-10-07T16:43:10.544Z,93.93
2017-10-07T16:45:03.547Z,92.88
2017-10-07T16:46:03.586Z,93.27
2017-10-07T16:47:56.599Z,93.08
2017-10-07T16:48:56.639Z,92.88
2017-10-07T16:50:49.646Z,93.46
2017-10-07T16:51:49.683Z,93.46
2017-10-07T16:53:42.689Z,93.65
2017-10-07T16:54:42.731Z,92.98
2017-10-07T16:56:35.716Z,93.46
2017-10-07T16:57:35.776Z,93.08
2017-10-07T16:59:28.805Z,92.98
2017-10-07T17:00:28.835Z,93.08
2017-10-07T17:02:21.816Z,92.79
2017-10-07T17:03:21.890Z,92.98
2017-10-07T17:05:14.876Z,93.08
2017-10-07T17:06:14.915Z,92.79
2017-10-07T17:08:08.930Z,93.08
2017-10-07T17:09:08.969Z,92.98
2017-10-07T17:11:01.975Z,93.08
2017-10-07T17:12:02.015Z,93.46
2017-10-07T17:13:55.021Z,93.65
2017-10-07T17:14:55.059Z,93.36
2017-10-07T17:16:48.047Z,93.46
2017-10-07T17:17:48.102Z,93.55
2017-10-07T17:19:41.108Z,93.27
2017-10-07T17:20:41.172Z,93.46
2017-10-07T17:22:34.134Z,93.08
2017-10-07T17:23:34.192Z,92.98
2017-10-07T17:25:27.196Z,92.98
2017-10-07T17:26:27.235Z,93.27
2017-10-07T17:28:20.223Z,93.74
2017-10-07T17:29:20.281Z,93.46
2017-10-07T17:31:13.305Z,93.93
2017-10-07T17:32:13.346Z,93.74
2017-10-07T17:34:06.356Z,94.32
2017-10-07T17:35:06.395Z,94.12
2017-10-07T17:36:59.380Z,94.22
2017-10-07T17:37:59.436Z,95.17
2017-10-07T17:39:52.442Z,95.17
2017-10-07T17:40:52.483Z,94.98
2017-10-07T17:42:45.469Z,94.89
2017-10-07T17:43:45.526Z,95.65
2017-10-07T17:45:38.533Z,95.37
2017-10-07T17:46:38.577Z,95.56
2017-10-07T17:48:31.560Z,95.56
2017-10-07T17:49:31.620Z,96.03
2017-10-07T17:51:24.639Z,95.94
2017-10-07T17:52:24.680Z,96.03
2017-10-07T17:54:17.685Z,96.22
2017-10-07T17:55:17.724Z,96.13
2017-10-07T17:57:10.720Z,96.22
2017-10-07T17:58:10.788Z,97.08
2017-10-07T18:00:03.814Z,96.70
2017-10-07T18:01:03.829Z,96.80
2017-10-07T18:02:56.829Z,96.80
2017-10-07T18:03:56.880Z,96.80
2017-10-07T18:05:49.883Z,96.98
2017-10-07T18:06:49.924Z,96.80
2017-10-07T18:08:42.916Z,96.41
2017-10-07T18:09:42.967Z,96.70
2017-10-07T18:11:35.978Z,96.89
2017-10-07T18:12:36.019Z,97.08
2017-10-07T18:14:29.039Z,96.61
2017-10-07T18:15:29.101Z,96.61
2017-10-07T18:17:22.069Z,96.32
2017-10-07T18:18:22.129Z,96.89
2017-10-07T18:20:15.130Z,96.22
2017-10-07T18:21:15.173Z,96.03
2017-10-07T18:23:08.156Z,96.89
2017-10-07T18:24:08.219Z,96.98
2017-10-07T18:26:01.218Z,96.32
2017-10-07T18:27:01.256Z,95.84
2017-10-07T18:28:54.256Z,95.94
2017-10-07T18:29:54.312Z,95.94
2017-10-07T18:31:47.317Z,96.13
2017-10-07T18:32:47.356Z,95.75
2017-10-07T18:34:40.373Z,95.94
2017-10-07T18:35:40.400Z,96.32